createdAt,value
2022-10-02T00:01:26.378Z,100059.88
2022-10-02T00:04:18.104Z,100072.84
2022-10-02T00:07:07.794Z,100057.47
2022-10-02T00:10:00.897Z,100053.50
2022-10-02T00:12:52.373Z,100055.47
2022-10-02T00:15:43.208Z,100067.72
2022-10-02T00:18:34.186Z,100066.94
2022-10-02T00:21:33.456Z,100089.03
2022-10-02T00:24:27.149Z,100072.44
2022-10-02T00:27:32.782Z,99982.44
2022-10-02T00:30:20.889Z,100074.81
2022-10-02T00:33:19.739Z,100094.59
2022-10-02T00:36:21.217Z,100101.69
2022-10-02T00:39:22.482Z,100096.16
2022-10-02T00:45:16.329Z,100096.94
2022-10-02T00:48:22.986Z,100088.25
2022-10-02T00:51:20.348Z,100094.56
2022-10-02T00:54:24.109Z,100081.91
2022-10-02T00:57:21.189Z,100082.72
2022-10-02T01:00:13.327Z,100099.28
2022-10-02T01:03:12.402Z,100097.72
2022-10-02T01:06:00.323Z,100100.09
2022-10-02T01:08:48.200Z,100103.63
2022-10-02T01:11:36.688Z,100100.84
2022-10-02T01:14:33.009Z,100104.44
2022-10-02T01:17:26.014Z,100089.84
2022-10-02T01:20:17.575Z,99996.22
2022-10-02T01:23:27.918Z,100088.25
2022-10-02T01:26:17.350Z,100089.41
2022-10-02T01:29:05.622Z,100081.13
2022-10-02T01:31:53.741Z,100086.66
2022-10-02T01:34:42.661Z,100091.81
2022-10-02T01:37:32.282Z,100077.53
2022-10-02T01:40:26.580Z,100091.78
2022-10-02T01:43:18.395Z,100087.44
2022-10-02T01:46:20.013Z,100106.78
2022-10-02T01:49:22.501Z,100102.41
2022-10-02T01:52:22.799Z,100108.72
2022-10-02T01:55:23.010Z,100113.50
2022-10-02T01:58:24.188Z,100119.03
2022-10-02T02:01:23.364Z,100114.31
2022-10-02T02:04:25.050Z,100117.03
2022-10-02T02:07:18.886Z,100102.44
2022-10-02T02:10:18.543Z,100099.69
2022-10-02T02:13:15.084Z,100098.09
2022-10-02T02:16:11.456Z,100107.19
2022-10-02T02:19:04.855Z,100110.75
2022-10-02T02:22:00.066Z,100109.16
2022-10-02T02:24:53.276Z,100107.97
2022-10-02T02:27:43.706Z,100113.88
2022-10-02T02:30:34.124Z,100115.47
2022-10-02T02:33:28.560Z,100116.59
2022-10-02T02:36:20.160Z,100119.78
2022-10-02T02:39:13.014Z,100118.22
2022-10-02T02:42:04.141Z,100115.84
2022-10-02T02:44:56.695Z,100114.28
2022-10-02T02:47:49.744Z,100104.09
2022-10-02T02:50:43.744Z,100114.34
2022-10-02T02:53:39.094Z,100101.72
2022-10-02T02:56:29.235Z,100097.38
2022-10-02T02:59:20.374Z,100099.75
2022-10-02T03:02:08.351Z,100102.53
2022-10-02T03:04:56.300Z,100097.75
2022-10-02T03:07:51.824Z,100096.59
2022-10-02T03:10:51.019Z,100107.66
2022-10-02T03:13:51.862Z,100103.28
2022-10-02T03:16:50.846Z,100108.78
2022-10-02T03:19:47.213Z,100102.44
2022-10-02T03:22:45.331Z,100123.78
2022-10-02T03:25:41.169Z,100119.81
2022-10-02T03:28:54.221Z,100025.44
2022-10-02T03:31:44.162Z,100087.03
2022-10-02T03:34:33.743Z,100067.69
2022-10-02T03:37:22.124Z,100116.28
2022-10-02T03:40:10.729Z,100111.91
2022-10-02T03:42:59.963Z,100115.88
2022-10-02T03:45:51.470Z,100115.47
2022-10-02T03:48:39.931Z,100113.47
2022-10-02T03:51:27.808Z,100116.63
2022-10-02T03:54:18.624Z,100107.94
2022-10-02T03:57:08.493Z,100105.94
2022-10-02T04:00:04.598Z,100113.00
2022-10-02T04:02:57.684Z,100093.66
2022-10-02T04:05:50.748Z,100114.16
2022-10-02T04:08:43.417Z,100109.88
2022-10-02T04:11:36.182Z,100090.13
2022-10-02T04:14:29.828Z,100113.84
2022-10-02T04:17:23.456Z,100116.19
2022-10-02T04:20:16.328Z,100115.38
2022-10-02T04:23:11.835Z,100117.00
2022-10-02T04:26:05.989Z,100129.19
2022-10-02T04:29:00.632Z,100122.09
2022-10-02T04:31:54.740Z,100100.75
2022-10-02T04:34:44.265Z,100117.75
2022-10-02T04:37:59.700Z,100122.84
2022-10-02T04:41:00.466Z,100121.25
2022-10-02T04:44:02.153Z,100109.44
2022-10-02T04:47:09.130Z,100107.84
2022-10-02T04:50:17.106Z,100114.97
2022-10-02T04:53:35.046Z,100111.41
2022-10-02T04:56:43.179Z,100110.22
2022-10-02T04:59:45.099Z,100115.34
2022-10-02T05:02:52.793Z,100111.00
2022-10-02T05:06:03.598Z,100116.53
2022-10-02T05:09:00.617Z,100108.63
2022-10-02T05:12:17.060Z,100120.09
2022-10-02T05:15:31.359Z,100111.03
2022-10-02T05:18:42.669Z,100126.41
2022-10-02T05:22:05.421Z,100117.72
2022-10-02T05:25:08.798Z,100122.84
2022-10-02T05:28:15.548Z,100126.00
2022-10-02T05:31:16.665Z,100089.25
2022-10-02T05:34:18.318Z,100126.38
2022-10-02T05:37:23.021Z,100124.03
2022-10-02T05:40:19.314Z,100120.88
2022-10-02T05:43:11.811Z,100115.75
2022-10-02T05:46:06.487Z,100111.44
2022-10-02T05:48:58.709Z,100106.28
2022-10-02T05:51:55.578Z,100107.88
2022-10-02T05:54:52.345Z,100120.88
2022-10-02T05:57:44.079Z,100114.19
2022-10-02T06:00:37.773Z,100118.91
2022-10-02T06:03:32.176Z,100119.69
2022-10-02T06:06:03.841Z,100125.22
2022-10-02T06:08:38.907Z,100126.00
2022-10-02T06:11:12.613Z,100096.72
2022-10-02T06:13:46.101Z,100133.13
2022-10-02T06:16:20.653Z,100134.28
2022-10-02T06:18:55.399Z,100135.47
2022-10-02T06:21:32.105Z,100143.34
2022-10-02T06:24:05.671Z,100134.25
2022-10-02T06:26:40.911Z,100145.34
2022-10-02T06:29:18.352Z,100140.22
2022-10-02T06:31:52.074Z,100136.66
2022-10-02T06:34:19.827Z,100141.78
2022-10-02T06:37:08.345Z,100133.88
2022-10-02T06:40:17.791Z,100129.56
2022-10-02T06:42:55.890Z,100123.66
2022-10-02T06:45:31.945Z,100120.88
2022-10-02T06:48:06.958Z,100122.47
2022-10-02T06:50:51.893Z,100118.91
2022-10-02T06:53:39.522Z,100118.09
2022-10-02T06:56:24.326Z,100121.66
2022-10-02T06:59:08.411Z,100118.50
2022-10-02T07:01:50.956Z,100117.72
2022-10-02T07:04:34.944Z,100126.81
2022-10-02T07:07:18.599Z,100137.81
2022-10-02T07:09:59.791Z,100143.34
2022-10-02T07:12:40.626Z,100131.91
2022-10-02T07:15:41.195Z,100139.81
2022-10-02T07:18:19.577Z,100127.59
2022-10-02T07:20:55.988Z,100129.19
2022-10-02T07:23:49.625Z,100128.78
2022-10-02T07:26:43.232Z,100125.22
2022-10-02T07:29:37.980Z,100126.41
2022-10-02T07:32:48.727Z,100129.53
2022-10-02T07:35:46.091Z,100129.56
2022-10-02T07:38:45.069Z,100117.72
2022-10-02T07:41:38.302Z,100131.47
2022-10-02T07:44:16.503Z,100140.53
2022-10-02T07:46:56.030Z,100142.13
2022-10-02T07:49:41.858Z,100132.28
2022-10-02T07:52:21.006Z,100130.31
2022-10-02T07:55:07.253Z,100140.94
2022-10-02T07:57:41.635Z,100145.31
2022-10-02T08:00:14.920Z,100141.34
2022-10-02T08:02:50.988Z,100146.88
2022-10-02T08:05:23.278Z,100144.53
2022-10-02T08:07:55.474Z,100153.19
2022-10-02T08:10:26.657Z,100140.97
2022-10-02T08:13:04.648Z,100147.28
2022-10-02T08:15:36.025Z,100144.91
2022-10-02T08:18:33.099Z,100156.38
2022-10-02T08:21:03.933Z,100155.16
2022-10-02T08:23:37.559Z,100157.56
2022-10-02T08:26:10.813Z,100143.34
2022-10-02T08:28:43.780Z,100135.81
2022-10-02T08:31:12.549Z,100144.91
2022-10-02T08:33:40.553Z,100134.25
2022-10-02T08:36:39.854Z,100134.72
2022-10-02T08:39:23.039Z,100134.69
2022-10-02T08:42:24.872Z,100125.31
2022-10-02T08:45:17.984Z,100139.47
2022-10-02T08:48:30.202Z,100140.19
2022-10-02T08:51:25.546Z,100135.91
2022-10-02T08:54:27.538Z,100137.88
2022-10-02T08:57:13.084Z,100130.41
2022-10-02T09:00:05.365Z,100135.09
2022-10-02T09:03:12.609Z,100136.31
2022-10-02T09:06:11.064Z,100141.09
2022-10-02T09:09:24.368Z,100142.28
2022-10-02T09:12:26.858Z,100139.50
2022-10-02T09:15:00.124Z,100145.84
2022-10-02T09:17:54.994Z,100122.94
2022-10-02T09:20:42.747Z,100122.94
2022-10-02T09:23:48.417Z,100137.50
2022-10-02T09:26:25.570Z,100133.16
2022-10-02T09:29:34.955Z,100135.16
2022-10-02T09:32:43.121Z,100122.22
2022-10-02T09:35:52.545Z,100125.41
2022-10-02T09:39:09.608Z,100127.28
2022-10-02T09:42:08.407Z,100118.56
2022-10-02T09:45:01.540Z,100037.56
2022-10-02T09:48:05.110Z,100124.88
2022-10-02T09:51:05.327Z,100131.97
2022-10-02T09:54:10.159Z,100134.78
2022-10-02T09:57:15.692Z,100130.00
2022-10-02T10:00:16.859Z,100120.56
2022-10-02T10:03:24.008Z,100132.38
2022-10-02T10:06:24.463Z,100135.56
2022-10-02T10:09:34.906Z,100130.84
2022-10-02T10:12:41.438Z,100132.44
2022-10-02T10:15:46.477Z,100140.03
2022-10-02T10:18:58.248Z,100143.59
2022-10-02T10:21:56.912Z,100145.97
2022-10-02T10:24:47.152Z,100153.84
2022-10-02T10:27:59.751Z,100157.41
2022-10-02T10:30:57.104Z,100158.19
2022-10-02T10:34:02.555Z,100144.38
2022-10-02T10:37:08.913Z,100162.91
2022-10-02T10:40:09.798Z,100134.09
2022-10-02T10:43:16.805Z,100124.22
2022-10-02T10:46:10.026Z,100147.84
2022-10-02T10:48:57.560Z,100138.75
2022-10-02T10:51:32.446Z,100147.81
2022-10-02T10:54:40.584Z,100144.25
2022-10-02T10:57:16.692Z,100144.28
2022-10-02T11:00:04.221Z,100146.66
2022-10-02T11:03:27.682Z,100152.25
2022-10-02T11:06:23.062Z,100156.97
2022-10-02T11:09:17.725Z,100164.50
2022-10-02T11:12:07.508Z,100153.06
2022-10-02T11:14:55.369Z,100155.44
2022-10-02T11:17:56.492Z,100143.16
2022-10-02T11:20:47.334Z,100141.63
2022-10-02T11:23:39.633Z,100145.16
2022-10-02T11:26:32.385Z,100152.66
2022-10-02T11:29:16.424Z,100162.13
2022-10-02T11:31:59.976Z,100167.25
2022-10-02T11:34:53.268Z,100167.25
2022-10-02T11:37:32.603Z,100176.75
2022-10-02T11:40:18.508Z,100163.28
2022-10-02T11:43:11.244Z,100161.72
2022-10-02T11:45:55.137Z,100154.63
2022-10-02T11:48:48.846Z,100170.00
2022-10-02T11:51:41.912Z,100159.34
2022-10-02T11:54:25.313Z,100165.66
2022-10-02T11:57:15.098Z,100171.22
2022-10-02T12:00:06.650Z,100160.97
2022-10-02T12:02:47.925Z,100162.53
2022-10-02T12:05:25.407Z,100158.53
2022-10-02T12:08:01.641Z,100158.53
2022-10-02T12:10:39.395Z,100158.97
2022-10-02T12:13:29.810Z,100160.53
2022-10-02T12:16:06.744Z,100149.84
2022-10-02T12:18:46.583Z,100165.28
2022-10-02T12:21:47.806Z,100158.19
2022-10-02T12:24:45.334Z,100164.13
2022-10-02T12:27:22.100Z,100160.16
2022-10-02T12:30:08.644Z,100175.16
2022-10-02T12:32:53.819Z,100172.03
2022-10-02T12:35:31.410Z,100155.41
2022-10-02T12:38:16.126Z,100152.28
2022-10-02T12:40:54.172Z,100151.47
2022-10-02T12:44:01.261Z,100145.94
2022-10-02T12:46:48.692Z,100145.19
2022-10-02T12:49:34.099Z,100140.81
2022-10-02T12:52:50.587Z,100145.97
2022-10-02T12:56:09.147Z,100148.72
2022-10-02T12:58:48.012Z,100153.84
2022-10-02T13:01:46.831Z,100149.91
2022-10-02T13:04:43.755Z,100143.56
2022-10-02T13:07:48.683Z,100156.22
2022-10-02T13:10:22.053Z,100145.16
2022-10-02T13:13:06.101Z,100159.41
2022-10-02T13:15:47.980Z,100142.00
2022-10-02T13:18:34.758Z,100156.63
2022-10-02T13:21:13.456Z,100157.03
2022-10-02T13:23:47.384Z,100171.25
2022-10-02T13:26:27.377Z,100169.63
2022-10-02T13:29:22.263Z,100163.72
2022-10-02T13:32:03.104Z,100171.22
2022-10-02T13:34:44.907Z,100177.94
2022-10-02T13:37:20.079Z,100164.53
2022-10-02T13:40:04.003Z,100172.00
2022-10-02T13:42:42.752Z,100161.34
2022-10-02T13:45:19.482Z,100159.78
2022-10-02T13:47:57.630Z,100158.59
2022-10-02T13:50:38.172Z,100146.72
2022-10-02T13:53:20.251Z,100160.56
2022-10-02T13:55:53.795Z,100154.66
2022-10-02T13:58:39.965Z,100148.34
2022-10-02T14:01:19.800Z,100149.13
2022-10-02T14:04:04.475Z,100150.69
2022-10-02T14:06:39.567Z,100149.91
2022-10-02T14:09:23.358Z,100154.63
2022-10-02T14:12:12.057Z,100151.88
2022-10-02T14:15:02.578Z,100141.59
2022-10-02T14:17:39.220Z,100128.97
2022-10-02T14:20:22.348Z,100143.97
2022-10-02T14:23:08.215Z,100143.56
2022-10-02T14:25:49.672Z,100156.63
2022-10-02T14:28:36.055Z,100151.09
2022-10-02T14:31:18.194Z,100162.94
2022-10-02T14:34:15.789Z,100164.91
2022-10-02T14:36:55.687Z,100171.22
2022-10-02T14:39:35.612Z,100175.97
2022-10-02T14:42:32.260Z,100169.22
2022-10-02T14:45:22.049Z,100172.41
2022-10-02T14:48:15.644Z,100175.16
2022-10-02T14:51:03.724Z,100157.81
2022-10-02T14:54:00.124Z,100164.09
2022-10-02T14:56:53.239Z,100157.00
2022-10-02T15:00:02.299Z,100161.34
2022-10-02T15:02:48.771Z,100161.72
2022-10-02T15:05:38.832Z,100162.53
2022-10-02T15:08:14.294Z,100166.09
2022-10-02T15:10:42.957Z,100122.59
2022-10-02T15:13:24.008Z,100181.50
2022-10-02T15:16:15.354Z,100175.19
2022-10-02T15:18:49.458Z,100180.31
2022-10-02T15:21:26.747Z,100180.72
2022-10-02T15:23:58.407Z,100185.47
2022-10-02T15:26:36.840Z,100176.78
2022-10-02T15:29:21.156Z,100182.31
2022-10-02T15:32:19.963Z,100179.94
2022-10-02T15:34:59.384Z,100179.91
2022-10-02T15:37:33.011Z,100172.84
2022-10-02T15:40:12.902Z,100175.97
2022-10-02T15:42:56.269Z,100180.72
2022-10-02T15:45:50.824Z,100183.09
2022-10-02T15:48:36.122Z,100194.53
2022-10-02T15:51:16.157Z,100198.47
2022-10-02T15:53:59.447Z,100208.38
2022-10-02T15:56:48.956Z,100205.59
2022-10-02T15:59:40.272Z,100212.31
2022-10-02T16:02:25.819Z,100214.28
2022-10-02T16:05:08.881Z,100213.50
2022-10-02T16:07:59.455Z,100213.13
2022-10-02T16:10:36.785Z,100207.59
2022-10-02T16:13:22.348Z,100205.59
2022-10-02T16:15:53.540Z,100217.84
2022-10-02T16:18:50.650Z,100215.06
2022-10-02T16:21:43.779Z,100228.91
2022-10-02T16:24:38.131Z,100226.13
2022-10-02T16:27:28.970Z,100226.53
2022-10-02T16:30:08.182Z,100226.53
2022-10-02T16:32:48.412Z,100224.94
2022-10-02T16:36:02.362Z,100237.59
2022-10-02T16:38:42.249Z,100232.03
2022-10-02T16:41:24.415Z,100230.47
2022-10-02T16:44:03.395Z,100232.81
2022-10-02T16:46:37.943Z,100229.28
2022-10-02T16:49:20.540Z,100229.25
2022-10-02T16:51:56.421Z,100231.25
2022-10-02T16:54:35.350Z,100231.63
2022-10-02T16:57:07.941Z,100242.69
2022-10-02T16:59:43.996Z,100254.16
2022-10-02T17:02:19.708Z,100254.94
2022-10-02T17:04:59.857Z,100252.16
2022-10-02T17:07:37.341Z,100260.06
2022-10-02T17:10:19.281Z,100267.19
2022-10-02T17:12:53.409Z,100265.19
2022-10-02T17:15:26.449Z,100271.53
2022-10-02T17:18:09.525Z,100275.84
2022-10-02T17:20:44.284Z,100286.16
2022-10-02T17:23:19.815Z,100258.09
2022-10-02T17:25:58.419Z,100277.84
2022-10-02T17:28:36.765Z,100245.78
2022-10-02T17:31:26.260Z,100299.59
2022-10-02T17:33:58.004Z,100307.09
2022-10-02T17:36:35.741Z,100304.31
2022-10-02T17:39:36.262Z,100305.47
2022-10-02T17:42:14.037Z,100307.06
2022-10-02T17:44:55.869Z,100299.16
2022-10-02T17:47:53.587Z,100320.06
2022-10-02T17:50:48.353Z,100325.97
2022-10-02T17:53:40.812Z,100319.63
2022-10-02T17:56:29.444Z,100320.78
2022-10-02T17:59:18.929Z,100331.44
2022-10-02T18:01:53.971Z,100339.25
2022-10-02T18:04:29.259Z,100337.66
2022-10-02T18:07:13.126Z,100349.44
2022-10-02T18:10:00.644Z,100354.88
2022-10-02T18:12:42.310Z,100352.09
2022-10-02T18:15:51.513Z,100352.81
2022-10-02T18:18:29.562Z,100360.25
2022-10-02T18:21:13.952Z,100352.59
2022-10-02T18:24:03.973Z,100365.63
2022-10-02T18:26:43.768Z,100369.59
2022-10-02T18:29:31.461Z,100376.66
2022-10-02T18:32:32.036Z,100378.19
2022-10-02T18:35:15.122Z,100382.47
2022-10-02T18:37:54.671Z,100376.19
2022-10-02T18:40:28.799Z,100379.00
2022-10-02T18:43:26.112Z,100377.97
2022-10-02T18:46:04.330Z,100394.22
2022-10-02T18:48:56.484Z,100391.97
2022-10-02T18:51:37.881Z,100404.28
2022-10-02T18:54:23.245Z,100403.91
2022-10-02T18:56:59.830Z,100387.31
2022-10-02T18:59:38.923Z,100411.53
2022-10-02T19:02:20.555Z,100411.94
2022-10-02T19:05:20.506Z,100424.22
2022-10-02T19:07:52.985Z,100423.44
2022-10-02T19:10:27.117Z,100412.25
2022-10-02T19:12:57.534Z,100426.59
2022-10-02T19:15:28.765Z,100429.78
2022-10-02T19:18:01.530Z,100442.81
2022-10-02T19:20:40.758Z,100438.84
2022-10-02T19:23:10.543Z,100401.56
2022-10-02T19:25:38.105Z,100446.38
2022-10-02T19:28:07.400Z,100463.78
2022-10-02T19:30:36.064Z,100450.72
2022-10-02T19:33:08.768Z,100446.81
2022-10-02T19:35:44.064Z,100452.75
2022-10-02T19:38:23.028Z,100459.88
2022-10-02T19:40:54.979Z,100461.03
2022-10-02T19:43:27.999Z,100461.84
2022-10-02T19:45:59.393Z,100456.28
2022-10-02T19:48:28.479Z,100477.66
2022-10-02T19:50:59.944Z,100477.66
2022-10-02T19:53:34.022Z,100473.66
2022-10-02T19:56:05.041Z,100479.16
2022-10-02T19:58:37.044Z,100488.25
2022-10-02T20:01:07.329Z,100491.84
2022-10-02T20:03:57.130Z,100503.28
2022-10-02T20:06:48.305Z,100497.34
2022-10-02T20:09:40.267Z,100506.81
2022-10-02T20:12:32.171Z,100512.72
2022-10-02T20:15:52.147Z,100521.38
2022-10-02T20:18:39.223Z,100518.25
2022-10-02T20:21:35.823Z,100524.94
2022-10-02T20:24:35.329Z,100524.16
2022-10-02T20:27:29.165Z,100526.13
2022-10-02T20:30:19.387Z,100525.72
2022-10-02T20:33:14.639Z,100536.41
2022-10-02T20:36:07.713Z,100543.09
2022-10-02T20:39:00.706Z,100546.22
2022-10-02T20:41:55.648Z,100548.19
2022-10-02T20:44:43.697Z,100560.03
2022-10-02T20:48:12.272Z,100558.81
2022-10-02T20:51:07.004Z,100563.59
2022-10-02T20:54:27.475Z,100564.31
2022-10-02T20:58:00.081Z,100581.66
2022-10-02T21:01:02.538Z,100581.88
2022-10-02T21:04:14.023Z,100586.22
2022-10-02T21:07:28.642Z,100586.63
2022-10-02T21:10:42.114Z,100584.66
2022-10-02T21:14:12.235Z,100590.59
2022-10-02T21:17:19.086Z,100589.84
2022-10-02T21:20:52.072Z,100592.53
2022-10-02T21:24:18.126Z,100592.56
2022-10-02T21:27:49.091Z,100589.50
2022-10-02T21:30:46.232Z,100599.31
2022-10-02T21:33:41.250Z,100604.00
2022-10-02T21:36:33.742Z,100616.25
2022-10-02T21:39:59.853Z,100613.06
2022-10-02T21:43:15.132Z,100609.13
2022-10-02T21:46:26.526Z,100625.31
2022-10-02T21:50:17.923Z,100621.31
2022-10-02T21:53:50.490Z,100623.63
2022-10-02T21:57:20.088Z,100624.69
2022-10-02T22:00:15.349Z,100631.47
2022-10-02T22:03:38.639Z,100629.31
2022-10-02T22:06:39.076Z,100630.94
2022-10-02T22:09:36.954Z,100636.31
2022-10-02T22:12:41.979Z,100637.19
2022-10-02T22:15:39.658Z,100640.72
2022-10-02T22:18:46.632Z,100643.78
2022-10-02T22:21:50.917Z,100652.47
2022-10-02T22:25:07.770Z,100656.00
2022-10-02T22:28:05.629Z,100661.91
2022-10-02T22:31:26.393Z,100656.00
2022-10-02T22:34:36.034Z,100648.44
2022-10-02T22:37:50.980Z,100653.63
2022-10-02T22:40:48.530Z,100658.28
2022-10-02T22:43:45.705Z,100659.00
2022-10-02T22:46:47.468Z,100620.94
2022-10-02T22:49:41.864Z,100671.69
2022-10-02T22:52:42.197Z,100675.50
2022-10-02T22:55:32.205Z,100672.75
2022-10-02T22:58:25.093Z,100685.41
2022-10-02T23:01:20.441Z,100679.41
2022-10-02T23:04:21.446Z,100688.50
2022-10-02T23:07:17.320Z,100689.28
2022-10-02T23:10:16.848Z,100688.88
2022-10-02T23:13:12.378Z,100688.94
2022-10-02T23:16:07.436Z,100694.47
2022-10-02T23:19:01.761Z,100701.59
2022-10-02T23:21:53.667Z,100694.84
2022-10-02T23:24:50.622Z,100704.34
2022-10-02T23:27:46.323Z,100700.78
2022-10-02T23:30:40.265Z,100709.13
2022-10-02T23:33:38.038Z,100670.50
2022-10-02T23:36:30.216Z,100705.16
2022-10-02T23:39:24.792Z,100707.53
2022-10-02T23:42:19.300Z,100707.13
2022-10-02T23:45:16.606Z,100698.78
2022-10-02T23:48:08.071Z,100700.19
2022-10-02T23:51:08.065Z,100718.25
2022-10-02T23:54:28.955Z,100722.13
2022-10-02T23:57:41.925Z,100719.34
